createdAt,value
2023-02-18T00:01:25.993Z,10.00
2023-02-18T00:03:53.390Z,8.00
2023-02-18T00:06:23.842Z,10.00
2023-02-18T00:08:51.783Z,8.75
2023-02-18T00:11:21.181Z,8.75
2023-02-18T00:13:56.014Z,9.00
2023-02-18T00:16:24.781Z,9.00
2023-02-18T00:18:55.083Z,9.75
2023-02-18T00:21:22.284Z,9.00
2023-02-18T00:23:49.258Z,10.00
2023-02-18T00:26:18.278Z,9.00
2023-02-18T00:28:45.956Z,10.00
2023-02-18T00:31:19.496Z,10.00
2023-02-18T00:33:46.912Z,10.00
2023-02-18T00:36:19.923Z,8.00
2023-02-18T00:38:54.348Z,10.00
2023-02-18T00:41:22.944Z,10.50
2023-02-18T00:43:50.070Z,9.50
2023-02-18T00:46:18.432Z,8.00
2023-02-18T00:48:45.457Z,10.25
2023-02-18T00:51:12.693Z,9.00
2023-02-18T00:53:40.494Z,13.25
2023-02-18T00:56:08.305Z,11.50
2023-02-18T00:58:36.920Z,9.00
2023-02-18T01:01:07.311Z,9.50
2023-02-18T01:03:34.702Z,9.00
2023-02-18T01:06:01.668Z,4.75
2023-02-18T01:08:28.661Z,3.00
2023-02-18T01:10:57.685Z,2.50
2023-02-18T01:13:26.213Z,2.50
2023-02-18T01:15:53.909Z,3.00
2023-02-18T01:18:21.498Z,2.00
2023-02-18T01:20:48.984Z,2.75
2023-02-18T01:23:16.551Z,3.00
2023-02-18T01:25:43.476Z,2.00
2023-02-18T01:28:12.934Z,2.00
2023-02-18T01:30:40.281Z,2.00
2023-02-18T01:33:08.274Z,2.00
2023-02-18T01:35:37.577Z,2.00
2023-02-18T01:38:04.542Z,2.00
2023-02-18T01:40:31.574Z,1.00
2023-02-18T01:42:58.533Z,2.00
2023-02-18T01:45:48.160Z,0.25
2023-02-18T01:48:15.066Z,1.25
2023-02-18T01:50:49.084Z,1.00
2023-02-18T01:53:20.845Z,1.75
2023-02-18T01:55:49.719Z,1.00
2023-02-18T01:58:17.154Z,2.00
2023-02-18T02:00:44.312Z,1.00
2023-02-18T02:03:11.294Z,1.00
2023-02-18T02:05:38.181Z,1.00
2023-02-18T02:08:52.803Z,2.00
2023-02-18T02:11:40.699Z,1.00
2023-02-18T02:14:30.289Z,0.00
2023-02-18T02:17:22.758Z,0.00
2023-02-18T02:20:28.158Z,1.00
2023-02-18T02:23:31.884Z,0.00
2023-02-18T02:26:32.661Z,0.00
2023-02-18T02:29:19.296Z,0.00
2023-02-18T02:32:16.759Z,0.00
2023-02-18T02:34:48.742Z,0.00
2023-02-18T02:37:25.780Z,0.00
2023-02-18T02:40:07.091Z,0.00
2023-02-18T02:42:46.838Z,0.00
2023-02-18T02:45:20.908Z,0.25
2023-02-18T02:48:06.608Z,0.00
2023-02-18T02:50:55.266Z,0.00
2023-02-18T02:53:28.068Z,1.00
2023-02-18T02:55:56.429Z,1.00
2023-02-18T02:58:24.012Z,0.00
2023-02-18T03:01:12.223Z,0.00
2023-02-18T03:03:39.125Z,0.00
2023-02-18T03:06:24.365Z,1.00
2023-02-18T03:09:14.109Z,1.00
2023-02-18T03:12:01.106Z,1.00
2023-02-18T03:14:45.055Z,1.50
2023-02-18T03:17:21.895Z,0.00
2023-02-18T03:19:58.013Z,1.00
2023-02-18T03:22:33.174Z,1.50
2023-02-18T03:25:00.858Z,1.00
2023-02-18T03:27:32.593Z,0.00
2023-02-18T03:30:13.522Z,1.25
2023-02-18T03:32:40.518Z,1.00
2023-02-18T03:35:16.074Z,1.00
2023-02-18T03:37:54.786Z,2.00
2023-02-18T03:40:21.784Z,1.00
2023-02-18T03:42:48.661Z,1.00
2023-02-18T03:45:15.762Z,1.00
2023-02-18T03:47:42.746Z,0.00
2023-02-18T03:50:09.969Z,2.00
2023-02-18T03:52:37.031Z,1.00
2023-02-18T03:55:05.626Z,1.00
2023-02-18T03:57:32.904Z,0.50
2023-02-18T03:59:59.825Z,1.00
2023-02-18T04:02:28.160Z,1.75
2023-02-18T04:04:55.513Z,2.00
2023-02-18T04:07:22.429Z,2.00
2023-02-18T04:09:49.444Z,2.75
2023-02-18T04:12:16.430Z,2.00
2023-02-18T04:14:43.286Z,2.00
2023-02-18T04:17:10.377Z,2.00
2023-02-18T04:19:37.278Z,2.00
2023-02-18T04:22:04.278Z,2.00
2023-02-18T04:24:31.162Z,3.00
2023-02-18T04:26:58.110Z,2.75
2023-02-18T04:29:25.071Z,2.00
2023-02-18T04:31:52.004Z,1.00
2023-02-18T04:34:18.921Z,1.00
2023-02-18T04:36:45.891Z,0.00
2023-02-18T04:39:12.853Z,0.75
2023-02-18T04:41:39.882Z,0.50
2023-02-18T04:44:06.821Z,1.00
2023-02-18T04:46:33.869Z,0.00
2023-02-18T04:49:00.817Z,0.00
2023-02-18T04:51:27.770Z,0.75
2023-02-18T04:53:54.741Z,0.00
2023-02-18T04:56:21.711Z,0.00
2023-02-18T04:58:48.629Z,0.00
2023-02-18T05:01:15.567Z,0.00
2023-02-18T05:03:42.607Z,0.00
2023-02-18T05:06:09.771Z,0.00
2023-02-18T05:08:36.885Z,0.00
2023-02-18T05:11:10.085Z,1.25
2023-02-18T05:13:36.961Z,3.00
2023-02-18T05:16:04.054Z,1.75
2023-02-18T05:18:30.952Z,1.00
2023-02-18T05:20:57.886Z,0.50
2023-02-18T05:23:26.188Z,0.00
2023-02-18T05:25:53.248Z,0.00
2023-02-18T05:28:20.190Z,0.00
2023-02-18T05:30:47.098Z,1.00
2023-02-18T05:33:14.326Z,1.50
2023-02-18T05:35:41.276Z,0.00
2023-02-18T05:38:08.241Z,1.00
2023-02-18T05:40:35.165Z,1.00
2023-02-18T05:43:02.099Z,1.00
2023-02-18T05:45:29.081Z,1.00
2023-02-18T05:47:56.019Z,0.00
2023-02-18T05:50:23.358Z,1.00
2023-02-18T05:52:50.277Z,0.50
2023-02-18T05:55:17.238Z,1.00
2023-02-18T05:57:44.160Z,0.00
2023-02-18T06:00:11.665Z,1.00
2023-02-18T06:02:39.062Z,1.00
2023-02-18T06:05:06.813Z,1.00
2023-02-18T06:07:33.733Z,0.50
2023-02-18T06:10:00.673Z,0.00
2023-02-18T06:12:27.684Z,1.00
2023-02-18T06:14:54.807Z,0.00
2023-02-18T06:17:22.928Z,0.00
2023-02-18T06:19:49.939Z,0.00
2023-02-18T06:22:16.923Z,0.00
2023-02-18T06:24:43.841Z,0.00
2023-02-18T06:27:10.735Z,0.00
2023-02-18T06:29:37.743Z,0.00
2023-02-18T06:32:04.894Z,1.00
2023-02-18T06:34:32.000Z,1.00
2023-02-18T06:37:01.217Z,1.00
2023-02-18T06:39:30.354Z,1.75
2023-02-18T06:41:57.285Z,1.00
2023-02-18T06:44:24.256Z,1.00
2023-02-18T06:46:51.165Z,1.00
2023-02-18T06:49:18.037Z,2.00
2023-02-18T06:51:44.978Z,0.00
2023-02-18T06:54:11.867Z,0.00
2023-02-18T06:56:38.786Z,1.00
2023-02-18T06:59:05.670Z,1.00
2023-02-18T07:01:32.592Z,0.50
2023-02-18T07:03:59.697Z,0.75
2023-02-18T07:06:26.710Z,0.25
2023-02-18T07:08:53.694Z,0.00
2023-02-18T07:11:20.722Z,0.00
2023-02-18T07:13:47.640Z,0.00
2023-02-18T07:16:14.558Z,1.00
2023-02-18T07:18:41.483Z,1.00
2023-02-18T07:21:08.979Z,1.00
2023-02-18T07:23:35.861Z,0.00
2023-02-18T07:26:08.978Z,0.00
2023-02-18T07:28:36.542Z,1.00
2023-02-18T07:31:04.549Z,0.00
2023-02-18T07:33:31.886Z,1.00
2023-02-18T07:36:00.671Z,0.00
2023-02-18T07:38:28.169Z,1.00
2023-02-18T07:40:56.810Z,0.00
2023-02-18T07:43:23.721Z,0.00
2023-02-18T07:45:50.718Z,1.00
2023-02-18T07:48:17.849Z,0.00
2023-02-18T07:50:46.730Z,0.75
2023-02-18T07:53:15.897Z,0.00
2023-02-18T07:55:52.282Z,0.00
2023-02-18T07:58:30.910Z,1.00
2023-02-18T08:00:58.518Z,0.00
2023-02-18T08:03:28.167Z,0.50
2023-02-18T08:05:56.515Z,0.00
2023-02-18T08:08:27.826Z,0.00
2023-02-18T08:10:56.610Z,0.00
2023-02-18T08:13:23.530Z,0.00
2023-02-18T08:15:51.222Z,0.00
2023-02-18T08:18:21.046Z,0.00
2023-02-18T08:20:49.029Z,1.00
2023-02-18T08:23:16.948Z,0.00
2023-02-18T08:25:50.213Z,1.00
2023-02-18T08:28:21.599Z,1.00
2023-02-18T08:30:50.359Z,2.00
2023-02-18T08:33:17.729Z,2.00
2023-02-18T08:35:45.570Z,0.00
2023-02-18T08:38:12.606Z,0.00
2023-02-18T08:40:41.107Z,1.00
2023-02-18T08:43:08.138Z,0.50
2023-02-18T08:45:36.094Z,0.50
2023-02-18T08:48:19.726Z,2.00
2023-02-18T08:50:48.580Z,0.00
2023-02-18T08:53:16.195Z,1.00
2023-02-18T08:55:43.312Z,3.00
2023-02-18T08:58:10.350Z,4.00
2023-02-18T09:00:38.640Z,1.00
2023-02-18T09:03:06.288Z,1.00
2023-02-18T09:05:33.227Z,0.00
2023-02-18T09:08:00.174Z,0.50
2023-02-18T09:10:27.165Z,1.00
2023-02-18T09:12:54.065Z,1.25
2023-02-18T09:15:21.011Z,3.00
2023-02-18T09:17:47.986Z,1.50
2023-02-18T09:20:15.459Z,1.00
2023-02-18T09:22:42.468Z,2.00
2023-02-18T09:25:09.472Z,1.25
2023-02-18T09:27:36.453Z,1.00
2023-02-18T09:30:04.190Z,1.00
2023-02-18T09:32:35.481Z,0.00
2023-02-18T09:35:04.074Z,1.00
2023-02-18T09:37:31.124Z,1.00
2023-02-18T09:39:58.030Z,1.00
2023-02-18T09:42:31.463Z,1.00
2023-02-18T09:45:02.835Z,2.00
2023-02-18T09:47:35.737Z,2.00
2023-02-18T09:50:18.965Z,1.75
2023-02-18T09:52:46.652Z,2.00
2023-02-18T09:55:16.328Z,2.00
2023-02-18T09:57:53.552Z,1.00
2023-02-18T10:00:27.400Z,1.00
2023-02-18T10:03:02.119Z,1.00
2023-02-18T10:05:31.694Z,1.75
2023-02-18T10:08:06.067Z,1.00
2023-02-18T10:10:42.986Z,1.75
2023-02-18T10:13:19.188Z,0.00
2023-02-18T10:15:46.987Z,1.00
2023-02-18T10:18:32.722Z,1.00
2023-02-18T10:21:12.638Z,2.25
2023-02-18T10:23:44.231Z,1.75
2023-02-18T10:26:16.632Z,1.00
2023-02-18T10:28:44.858Z,0.00
2023-02-18T10:31:19.040Z,1.00
2023-02-18T10:33:51.777Z,1.00
2023-02-18T10:36:30.057Z,2.00
2023-02-18T10:39:05.655Z,1.00
2023-02-18T10:41:54.119Z,1.50
2023-02-18T10:44:35.224Z,1.75
2023-02-18T10:47:14.210Z,1.25
2023-02-18T10:49:49.816Z,2.00
2023-02-18T10:52:18.359Z,1.00
2023-02-18T10:55:07.151Z,2.00
2023-02-18T10:57:34.322Z,3.00
2023-02-18T11:00:12.766Z,2.00
2023-02-18T11:02:40.164Z,2.00
2023-02-18T11:05:23.208Z,2.00
2023-02-18T11:07:53.924Z,4.00
2023-02-18T11:10:34.229Z,2.00
2023-02-18T11:13:04.100Z,3.00
2023-02-18T11:15:31.892Z,2.00
2023-02-18T11:18:13.950Z,2.00
2023-02-18T11:20:41.340Z,2.00
2023-02-18T11:23:08.230Z,1.00
2023-02-18T11:25:40.523Z,1.25
2023-02-18T11:28:13.647Z,3.00
2023-02-18T11:30:44.791Z,3.00
2023-02-18T11:33:40.518Z,3.00
2023-02-18T11:36:22.265Z,3.75
2023-02-18T11:38:54.232Z,3.00
2023-02-18T11:41:31.051Z,3.00
2023-02-18T11:43:59.340Z,4.00
2023-02-18T11:46:28.151Z,2.00
2023-02-18T11:48:55.574Z,3.00
2023-02-18T11:51:33.426Z,1.00
2023-02-18T11:54:03.813Z,2.00
2023-02-18T11:56:34.126Z,3.00
2023-02-18T11:59:03.413Z,2.00
2023-02-18T12:01:47.813Z,2.00
2023-02-18T12:04:18.521Z,3.00
2023-02-18T12:07:01.572Z,3.75
2023-02-18T12:09:35.292Z,3.50
2023-02-18T12:12:10.904Z,3.00
2023-02-18T12:14:37.902Z,3.00
2023-02-18T12:17:28.439Z,1.00
2023-02-18T12:20:27.414Z,7.00
2023-02-18T12:23:08.951Z,4.00
2023-02-18T12:25:51.534Z,3.00
2023-02-18T12:28:27.082Z,2.00
2023-02-18T12:31:25.186Z,4.00
2023-02-18T12:33:58.823Z,6.00
2023-02-18T12:36:28.781Z,4.00
2023-02-18T12:39:20.424Z,4.00
2023-02-18T12:42:03.809Z,4.00
2023-02-18T12:44:38.441Z,6.75
2023-02-18T12:47:38.822Z,4.25
2023-02-18T12:50:22.547Z,8.75
2023-02-18T12:53:18.860Z,5.00
2023-02-18T12:56:05.599Z,6.75
2023-02-18T12:58:35.590Z,4.00
2023-02-18T13:01:08.625Z,7.00
2023-02-18T13:03:50.841Z,7.50
2023-02-18T13:06:36.098Z,7.25
2023-02-18T13:09:20.430Z,7.00
2023-02-18T13:12:26.402Z,6.00
2023-02-18T13:15:19.986Z,4.00
2023-02-18T13:17:49.234Z,4.00
2023-02-18T13:20:27.381Z,7.00
2023-02-18T13:22:54.388Z,4.00
2023-02-18T13:25:22.435Z,7.75
2023-02-18T13:28:10.193Z,6.00
2023-02-18T13:30:46.462Z,4.00
2023-02-18T13:33:31.611Z,2.50
2023-02-18T13:36:34.899Z,4.00
2023-02-18T13:39:09.214Z,2.00
2023-02-18T13:41:42.611Z,3.00
2023-02-18T13:44:22.864Z,5.75
2023-02-18T13:46:53.186Z,1.00
2023-02-18T13:49:27.642Z,2.75
2023-02-18T13:51:57.833Z,1.50
2023-02-18T13:54:38.834Z,3.00
2023-02-18T13:57:15.287Z,2.00
2023-02-18T13:59:47.369Z,2.25
2023-02-18T14:02:20.453Z,2.00
2023-02-18T14:04:47.597Z,2.00
2023-02-18T14:07:36.158Z,3.50
2023-02-18T14:10:21.098Z,1.75
2023-02-18T14:12:57.130Z,2.00
2023-02-18T14:15:23.987Z,2.00
2023-02-18T14:18:12.874Z,2.00
2023-02-18T14:20:39.832Z,2.00
2023-02-18T14:23:18.823Z,3.00
2023-02-18T14:25:53.869Z,2.00
2023-02-18T14:28:38.540Z,8.25
2023-02-18T14:31:34.455Z,11.00
2023-02-18T14:34:11.323Z,6.50
2023-02-18T14:37:07.919Z,24.75
2023-02-18T14:39:37.945Z,9.50
2023-02-18T14:42:19.811Z,11.25
2023-02-18T14:45:04.936Z,12.25
2023-02-18T14:47:56.657Z,8.50
2023-02-18T14:50:24.373Z,10.25
2023-02-18T14:52:55.412Z,11.50
2023-02-18T14:55:50.138Z,7.50
2023-02-18T14:58:19.807Z,9.50
2023-02-18T15:00:46.759Z,7.00
2023-02-18T15:03:20.544Z,6.00
2023-02-18T15:05:47.559Z,7.00
2023-02-18T15:08:23.048Z,8.00
2023-02-18T15:10:59.096Z,6.50
2023-02-18T15:13:31.346Z,7.00
2023-02-18T15:16:02.223Z,4.00
2023-02-18T15:18:40.919Z,5.50
2023-02-18T15:21:21.186Z,7.00
2023-02-18T15:23:49.143Z,5.00
2023-02-18T15:26:17.331Z,9.00
2023-02-18T15:29:01.843Z,8.00
2023-02-18T15:31:32.290Z,6.25
2023-02-18T15:33:59.418Z,8.00
2023-02-18T15:36:27.390Z,14.00
2023-02-18T15:38:56.901Z,12.00
2023-02-18T15:41:24.347Z,11.75
2023-02-18T15:44:06.518Z,10.75
2023-02-18T15:46:33.582Z,18.00
2023-02-18T15:49:01.309Z,18.50
2023-02-18T15:51:31.065Z,17.75
2023-02-18T15:54:02.861Z,14.00
2023-02-18T15:56:37.947Z,14.75
2023-02-18T15:59:18.780Z,13.00
2023-02-18T16:01:55.725Z,13.00
2023-02-18T16:04:28.700Z,12.00
2023-02-18T16:06:56.753Z,14.00
2023-02-18T16:09:31.025Z,15.00
2023-02-18T16:12:04.345Z,13.25
2023-02-18T16:14:51.552Z,13.75
2023-02-18T16:17:21.582Z,13.25
2023-02-18T16:20:08.064Z,12.50
2023-02-18T16:22:43.004Z,15.75
2023-02-18T16:25:18.048Z,18.00
2023-02-18T16:28:12.857Z,11.00
2023-02-18T16:30:41.753Z,16.25
2023-02-18T16:33:08.974Z,13.25
2023-02-18T16:35:49.054Z,25.25
2023-02-18T16:38:22.036Z,22.25
2023-02-18T16:40:49.944Z,19.00
2023-02-18T16:43:19.897Z,19.00
2023-02-18T16:45:58.062Z,15.75
2023-02-18T16:48:53.008Z,19.25
2023-02-18T16:51:34.867Z,16.75
2023-02-18T16:54:03.885Z,17.00
2023-02-18T16:56:33.633Z,17.25
2023-02-18T16:59:00.517Z,15.25
2023-02-18T17:01:33.962Z,18.50
2023-02-18T17:04:02.538Z,14.00
2023-02-18T17:06:29.775Z,19.50
2023-02-18T17:08:56.768Z,12.75
2023-02-18T17:11:30.572Z,19.75
2023-02-18T17:14:00.852Z,13.50
2023-02-18T17:16:28.542Z,17.25
2023-02-18T17:18:55.456Z,16.25
2023-02-18T17:21:24.812Z,13.00
2023-02-18T17:23:52.941Z,16.25
2023-02-18T17:26:25.109Z,12.00
2023-02-18T17:28:53.284Z,16.00
2023-02-18T17:31:32.242Z,16.00
2023-02-18T17:34:02.119Z,13.50
2023-02-18T17:36:29.077Z,13.50
2023-02-18T17:38:56.628Z,11.00
2023-02-18T17:41:23.625Z,13.00
2023-02-18T17:43:50.638Z,12.50
2023-02-18T17:46:19.558Z,9.25
2023-02-18T17:48:47.576Z,9.75
2023-02-18T17:51:27.044Z,9.00
2023-02-18T17:53:54.389Z,9.00
2023-02-18T17:56:21.428Z,11.75
2023-02-18T17:58:49.083Z,12.00
2023-02-18T18:01:16.363Z,8.50
2023-02-18T18:03:43.340Z,9.00
2023-02-18T18:06:19.432Z,9.00
2023-02-18T18:08:46.965Z,9.00
2023-02-18T18:11:21.020Z,9.75
2023-02-18T18:13:48.072Z,11.00
2023-02-18T18:16:17.139Z,8.50
2023-02-18T18:18:44.897Z,8.75
2023-02-18T18:21:23.290Z,9.50
2023-02-18T18:23:51.294Z,4.00
2023-02-18T18:26:18.176Z,10.00
2023-02-18T18:28:45.189Z,9.75
2023-02-18T18:31:15.874Z,9.75
2023-02-18T18:33:43.636Z,9.00
2023-02-18T18:36:10.760Z,3.00
2023-02-18T18:38:37.925Z,9.25
2023-02-18T18:41:04.978Z,9.75
2023-02-18T18:43:33.457Z,8.50
2023-02-18T18:46:00.811Z,9.50
2023-02-18T18:48:27.953Z,10.00
2023-02-18T18:50:55.502Z,8.75
2023-02-18T18:53:31.494Z,8.75
2023-02-18T18:56:01.630Z,7.00
2023-02-18T18:58:28.619Z,8.00
2023-02-18T19:00:58.424Z,7.25
2023-02-18T19:03:27.043Z,7.00
2023-02-18T19:05:54.744Z,7.50
2023-02-18T19:08:22.262Z,7.00
2023-02-18T19:10:49.154Z,7.00
2023-02-18T19:13:22.144Z,8.00
2023-02-18T19:15:50.926Z,8.00
2023-02-18T19:18:20.721Z,7.00
2023-02-18T19:20:48.692Z,7.50
2023-02-18T19:23:17.039Z,5.00
2023-02-18T19:25:44.765Z,7.00
2023-02-18T19:28:14.906Z,8.00
2023-02-18T19:30:42.976Z,8.00
2023-02-18T19:33:13.043Z,6.50
2023-02-18T19:35:40.979Z,7.00
2023-02-18T19:38:10.436Z,7.25
2023-02-18T19:40:37.904Z,4.00
2023-02-18T19:43:05.449Z,5.00
2023-02-18T19:45:33.371Z,8.00
2023-02-18T19:48:01.288Z,7.50
2023-02-18T19:50:33.060Z,6.00
2023-02-18T19:53:00.234Z,8.00
2023-02-18T19:55:27.868Z,6.25
2023-02-18T19:57:54.742Z,5.25
2023-02-18T20:00:25.452Z,4.50
2023-02-18T20:02:52.344Z,4.50
2023-02-18T20:05:19.446Z,4.00
2023-02-18T20:07:46.989Z,6.00
2023-02-18T20:10:20.353Z,4.25
2023-02-18T20:12:52.358Z,4.75
2023-02-18T20:15:19.787Z,4.00
2023-02-18T20:17:46.717Z,5.25
2023-02-18T20:20:13.619Z,6.50
2023-02-18T20:22:40.477Z,6.00
2023-02-18T20:25:07.635Z,7.00
2023-02-18T20:27:39.623Z,5.00
2023-02-18T20:30:11.014Z,5.00
2023-02-18T20:32:38.428Z,7.00
2023-02-18T20:35:06.018Z,4.50
2023-02-18T20:37:33.682Z,4.75
2023-02-18T20:40:01.152Z,5.75
2023-02-18T20:42:28.095Z,4.50
2023-02-18T20:44:55.001Z,6.50
2023-02-18T20:47:21.899Z,7.00
2023-02-18T20:49:48.816Z,1.00
2023-02-18T20:52:16.967Z,3.00
2023-02-18T20:54:43.925Z,3.00
2023-02-18T20:57:10.884Z,4.50
2023-02-18T20:59:37.833Z,2.00
2023-02-18T21:02:04.863Z,2.25
2023-02-18T21:04:31.821Z,1.00
2023-02-18T21:06:58.760Z,0.75
2023-02-18T21:09:26.164Z,0.25
2023-02-18T21:11:53.205Z,1.00
2023-02-18T21:14:20.103Z,1.00
2023-02-18T21:16:47.867Z,1.00
2023-02-18T21:19:16.688Z,0.00
2023-02-18T21:21:44.461Z,1.00
2023-02-18T21:24:11.916Z,1.00
2023-02-18T21:26:39.653Z,1.00
2023-02-18T21:29:08.481Z,1.00
2023-02-18T21:31:38.665Z,0.25
2023-02-18T21:34:06.943Z,1.00
2023-02-18T21:36:34.481Z,1.00
2023-02-18T21:39:04.197Z,1.00
2023-02-18T21:41:33.061Z,1.00
2023-02-18T21:44:00.115Z,2.00
2023-02-18T21:46:36.920Z,2.00
2023-02-18T21:49:05.394Z,3.00
2023-02-18T21:52:00.773Z,2.00
2023-02-18T21:54:31.784Z,4.00
2023-02-18T21:57:00.452Z,2.50
2023-02-18T21:59:29.527Z,4.50
2023-02-18T22:01:59.943Z,5.00
2023-02-18T22:04:28.299Z,7.75
2023-02-18T22:06:55.310Z,8.00
2023-02-18T22:09:22.837Z,7.00
2023-02-18T22:11:49.861Z,8.00
2023-02-18T22:14:17.647Z,7.00
2023-02-18T22:16:45.505Z,7.00
2023-02-18T22:19:14.194Z,7.00
2023-02-18T22:21:42.349Z,6.00
2023-02-18T22:24:11.187Z,4.50
2023-02-18T22:26:38.083Z,3.25
2023-02-18T22:29:05.327Z,4.00
2023-02-18T22:31:32.872Z,6.00
2023-02-18T22:34:00.550Z,6.00
2023-02-18T22:36:29.270Z,5.50
2023-02-18T22:38:57.640Z,4.00
2023-02-18T22:41:26.196Z,6.00
2023-02-18T22:43:58.023Z,4.00
2023-02-18T22:46:25.535Z,7.00
2023-02-18T22:48:54.857Z,6.00
2023-02-18T22:51:25.258Z,5.00
2023-02-18T22:53:56.828Z,6.25
2023-02-18T22:56:25.868Z,6.00
2023-02-18T22:58:54.607Z,4.25
2023-02-18T23:01:29.806Z,6.00
2023-02-18T23:03:58.984Z,6.25
2023-02-18T23:06:26.082Z,4.00
2023-02-18T23:08:54.821Z,7.00
2023-02-18T23:11:22.173Z,6.00
2023-02-18T23:14:09.729Z,4.25
2023-02-18T23:16:57.439Z,3.00
2023-02-18T23:19:26.709Z,6.50
2023-02-18T23:21:54.249Z,5.50
2023-02-18T23:24:21.806Z,6.00
2023-02-18T23:26:49.676Z,6.25
2023-02-18T23:29:16.738Z,3.25
2023-02-18T23:31:44.041Z,4.00
2023-02-18T23:34:16.272Z,3.00
2023-02-18T23:36:44.225Z,5.00
2023-02-18T23:39:13.742Z,6.00
2023-02-18T23:41:40.900Z,4.00
2023-02-18T23:44:11.026Z,2.75
2023-02-18T23:46:38.706Z,3.25
2023-02-18T23:49:06.279Z,3.00
2023-02-18T23:51:33.264Z,2.50
2023-02-18T23:54:03.639Z,2.00
2023-02-18T23:56:30.727Z,3.25
2023-02-18T23:59:00.796Z,2.00
